Time;durP1;ratioP1;P1;durP2;ratioP2;P2;SDS_P1;SDS_P2;PMS_P1;PMS_P2;Temp;Humidity;BMP_temperature;BMP_pressure;BME280_temperature;BME280_humidity;BME280_pressure;Samples;Min_cycle;Max_cycle;Signal;HPM_P1;HPM_P2
2022/01/29 00:01:02;;;;;;;17.93;8.43;;;5.50;99.90;;;;;;5061701;28;20206;-44
2022/01/29 00:03:30;;;;;;;18.70;8.97;;;5.50;99.90;;;;;;5060105;28;20933;-44
2022/01/29 00:05:58;;;;;;;24.70;8.93;;;5.50;99.90;;;;;;5062560;28;20275;-44
2022/01/29 00:08:25;;;;;;;18.67;8.57;;;5.60;99.90;;;;;;5059372;28;20195;-44
2022/01/29 00:10:55;;;;;;;18.63;9.27;;;5.60;99.90;;;;;;5052382;28;20211;-45
2022/01/29 00:13:23;;;;;;;16.70;9.87;;;5.60;99.90;;;;;;5058587;28;20955;-43
2022/01/29 00:15:50;;;;;;;23.27;10.17;;;5.60;99.90;;;;;;5047999;28;20226;-47
2022/01/29 00:18:17;;;;;;;20.23;8.90;;;5.60;99.90;;;;;;5055944;28;20191;-46
2022/01/29 00:20:44;;;;;;;23.63;10.20;;;5.60;99.90;;;;;;5062278;28;20199;-45
2022/01/29 00:23:11;;;;;;;19.37;9.40;;;5.60;99.90;;;;;;5059690;28;20209;-46
2022/01/29 00:25:39;;;;;;;21.70;10.07;;;5.60;99.90;;;;;;5053752;28;20231;-47
2022/01/29 00:28:06;;;;;;;23.80;10.53;;;5.60;99.90;;;;;;5060754;28;20259;-47
2022/01/29 00:30:38;;;;;;;21.93;11.23;;;5.60;99.90;;;;;;5046134;28;20213;-43
2022/01/29 00:33:07;;;;;;;19.27;10.77;;;5.60;99.90;;;;;;5055610;28;20574;-47
2022/01/29 00:35:34;;;;;;;22.27;11.20;;;5.60;99.90;;;;;;5064634;28;20448;-46
2022/01/29 00:38:01;;;;;;;21.47;11.97;;;5.60;99.90;;;;;;5065677;28;20687;-46
2022/01/29 00:40:28;;;;;;;21.30;12.07;;;5.60;99.90;;;;;;5063405;28;20201;-42
2022/01/29 00:42:55;;;;;;;23.77;12.13;;;5.60;99.90;;;;;;5055382;28;20210;-47
2022/01/29 00:45:22;;;;;;;26.93;13.37;;;5.60;99.90;;;;;;5047842;28;20205;-45
2022/01/29 00:47:49;;;;;;;21.80;13.17;;;5.60;99.90;;;;;;5063568;28;20195;-43
2022/01/29 00:50:17;;;;;;;22.63;11.93;;;5.60;99.90;;;;;;5061858;28;20224;-48
2022/01/29 00:52:44;;;;;;;26.10;14.13;;;5.60;99.90;;;;;;5065983;28;20588;-45
2022/01/29 00:55:12;;;;;;;22.23;13.97;;;5.60;99.90;;;;;;5063173;28;20210;-44
2022/01/29 00:57:40;;;;;;;24.67;12.80;;;5.60;99.90;;;;;;5056040;28;20234;-44
2022/01/29 01:00:09;;;;;;;31.57;14.73;;;5.60;99.90;;;;;;5049614;28;20624;-43
2022/01/29 01:02:35;;;;;;;27.67;15.93;;;5.60;99.90;;;;;;5063689;28;20419;-45
2022/01/29 01:05:03;;;;;;;26.53;13.97;;;5.60;99.90;;;;;;5054194;28;20187;-44
2022/01/29 01:07:32;;;;;;;27.20;15.10;;;5.60;99.90;;;;;;5064933;28;20227;-46
2022/01/29 01:09:59;;;;;;;31.10;16.93;;;5.50;99.90;;;;;;5061707;28;20195;-45
2022/01/29 01:12:26;;;;;;;25.53;16.43;;;5.50;99.90;;;;;;5057329;28;20196;-45
2022/01/29 01:14:53;;;;;;;39.50;17.47;;;5.50;99.90;;;;;;5049453;28;20244;-46
2022/01/29 01:17:20;;;;;;;28.10;15.90;;;5.50;99.90;;;;;;5064217;28;20231;-47
2022/01/29 01:19:47;;;;;;;37.30;18.23;;;5.40;99.90;;;;;;5062799;28;20664;-45
2022/01/29 01:22:16;;;;;;;37.97;18.67;;;5.40;99.90;;;;;;5064501;28;20198;-47
2022/01/29 01:24:44;;;;;;;37.23;18.80;;;5.40;99.90;;;;;;5064020;28;20237;-43
2022/01/29 01:27:11;;;;;;;32.27;18.07;;;5.40;99.90;;;;;;5056942;28;23178;-44
2022/01/29 01:29:37;;;;;;;29.33;17.70;;;5.40;99.90;;;;;;5065053;28;20202;-43
2022/01/29 01:32:05;;;;;;;32.33;17.77;;;5.40;99.90;;;;;;5047812;28;20216;-46
2022/01/29 01:34:37;;;;;;;31.77;19.60;;;5.40;99.90;;;;;;5065423;28;20278;-43
2022/01/29 01:37:09;;;;;;;34.73;18.70;;;5.40;99.90;;;;;;5062005;28;20948;-43
2022/01/29 01:39:38;;;;;;;31.97;19.50;;;5.40;99.90;;;;;;5065363;28;20237;-46
2022/01/29 01:42:08;;;;;;;31.00;19.40;;;5.40;99.90;;;;;;5055803;28;20206;-45
2022/01/29 01:44:36;;;;;;;43.17;21.10;;;5.40;99.90;;;;;;5064749;28;20715;-46
2022/01/29 01:47:04;;;;;;;37.37;19.57;;;5.40;99.90;;;;;;5046168;28;20229;-46
2022/01/29 01:49:31;;;;;;;33.53;20.13;;;5.40;99.90;;;;;;5064059;28;20554;-44
2022/01/29 01:51:58;;;;;;;40.00;19.57;;;5.40;99.90;;;;;;5061063;28;20198;-43
2022/01/29 01:54:25;;;;;;;35.83;20.40;;;5.40;99.90;;;;;;5065029;28;20568;-51
2022/01/29 01:56:52;;;;;;;40.83;20.83;;;5.40;99.90;;;;;;5061557;28;20711;-47
2022/01/29 01:59:21;;;;;;;46.60;22.80;;;5.40;99.90;;;;;;5058213;28;20686;-44
2022/01/29 02:01:48;;;;;;;40.00;22.70;;;5.40;99.90;;;;;;5062615;28;20206;-47
2022/01/29 02:04:15;;;;;;;35.47;20.70;;;5.40;99.90;;;;;;5049147;28;20253;-44
2022/01/29 02:06:42;;;;;;;44.97;24.33;;;5.40;99.90;;;;;;5063207;28;20225;-48
2022/01/29 02:09:11;;;;;;;42.87;23.40;;;5.40;99.90;;;;;;5062592;28;20209;-44
2022/01/29 02:11:48;;;;;;;49.10;26.63;;;5.40;99.90;;;;;;5064417;28;20285;-47
2022/01/29 02:14:15;;;;;;;40.43;23.23;;;5.40;99.90;;;;;;5057279;28;20279;-46
2022/01/29 02:16:43;;;;;;;43.43;23.67;;;5.40;99.90;;;;;;5062940;28;20214;-47
2022/01/29 02:19:10;;;;;;;44.33;26.47;;;5.40;99.90;;;;;;5045209;28;20210;-43
2022/01/29 02:21:39;;;;;;;42.93;24.90;;;5.40;99.90;;;;;;5063846;28;20195;-46
2022/01/29 02:24:06;;;;;;;44.70;24.67;;;5.50;99.90;;;;;;5061887;28;20943;-46
2022/01/29 02:26:33;;;;;;;50.43;25.20;;;5.50;99.90;;;;;;5064208;28;20223;-44
2022/01/29 02:29:00;;;;;;;51.53;27.33;;;5.40;99.90;;;;;;5053896;28;20891;-44
2022/01/29 02:31:26;;;;;;;45.57;25.53;;;5.50;99.90;;;;;;5064689;28;20199;-44
2022/01/29 02:33:53;;;;;;;46.20;27.23;;;5.50;99.90;;;;;;5047148;28;20233;-47
2022/01/29 02:36:20;;;;;;;52.93;27.80;;;5.50;99.90;;;;;;5063090;28;20215;-43
2022/01/29 02:38:48;;;;;;;46.33;26.30;;;5.50;99.90;;;;;;5061836;28;20211;-47
2022/01/29 02:41:16;;;;;;;48.83;26.47;;;5.50;99.90;;;;;;5063737;28;20202;-48
2022/01/29 02:43:46;;;;;;;51.93;27.63;;;5.50;99.90;;;;;;5055854;28;20197;-46
2022/01/29 02:46:29;;;;;;;46.63;26.90;;;5.50;99.90;;;;;;5062457;28;20218;-46
2022/01/29 02:48:57;;;;;;;49.33;25.10;;;5.50;99.90;;;;;;5040773;28;20202;-50
2022/01/29 02:51:25;;;;;;;53.30;28.77;;;5.50;99.90;;;;;;5063810;28;20280;-46
2022/01/29 02:53:53;;;;;;;51.40;28.67;;;5.50;99.90;;;;;;5060797;28;20684;-46
2022/01/29 02:56:20;;;;;;;46.97;24.73;;;5.60;99.90;;;;;;5062951;28;20233;-45
2022/01/29 02:58:47;;;;;;;47.70;26.97;;;5.60;99.90;;;;;;5058041;28;20604;-45
2022/01/29 03:01:14;;;;;;;48.80;28.57;;;5.60;99.90;;;;;;5056383;28;20259;-44
2022/01/29 03:03:41;;;;;;;48.83;25.27;;;5.60;99.90;;;;;;5062820;28;20191;-50
2022/01/29 03:06:09;;;;;;;49.60;26.90;;;5.60;99.90;;;;;;5046738;28;20206;-46
2022/01/29 03:08:37;;;;;;;52.40;28.47;;;5.70;99.90;;;;;;5063323;28;20213;-45
2022/01/29 03:11:06;;;;;;;45.83;25.00;;;5.70;99.90;;;;;;5060529;28;20215;-46
2022/01/29 03:13:33;;;;;;;46.73;25.17;;;5.70;99.90;;;;;;5050362;28;20215;-47
2022/01/29 03:16:00;;;;;;;46.17;25.70;;;5.70;99.90;;;;;;5050791;28;20218;-45
2022/01/29 03:18:27;;;;;;;42.37;22.73;;;5.70;99.90;;;;;;5060488;28;20659;-44
2022/01/29 03:20:54;;;;;;;42.03;24.30;;;5.80;99.90;;;;;;5044729;28;20214;-48
2022/01/29 03:23:21;;;;;;;41.83;23.00;;;5.80;99.90;;;;;;5061928;28;20539;-45
2022/01/29 03:25:47;;;;;;;46.43;24.97;;;5.80;99.90;;;;;;5060627;28;20218;-44
2022/01/29 03:28:16;;;;;;;49.37;26.37;;;5.80;99.90;;;;;;5062456;28;20268;-47
2022/01/29 03:30:42;;;;;;;40.17;24.03;;;5.80;99.90;;;;;;5050268;28;20195;-45
2022/01/29 03:33:09;;;;;;;42.80;23.80;;;5.80;99.90;;;;;;5061190;28;20902;-44
2022/01/29 03:35:36;;;;;;;45.20;23.47;;;5.80;99.90;;;;;;5061829;28;20226;-45
2022/01/29 03:38:04;;;;;;;42.93;24.33;;;5.80;99.90;;;;;;5048476;28;20195;-44
2022/01/29 03:40:32;;;;;;;39.70;22.03;;;5.80;99.90;;;;;;5063151;28;20241;-49
2022/01/29 03:43:04;;;;;;;42.97;24.03;;;5.80;99.90;;;;;;5059397;28;20972;-47
2022/01/29 03:45:33;;;;;;;45.67;23.80;;;5.90;99.90;;;;;;5063287;28;20214;-45
2022/01/29 03:48:01;;;;;;;44.87;24.40;;;5.90;99.90;;;;;;5050850;28;20221;-43
2022/01/29 03:50:27;;;;;;;42.57;24.00;;;5.90;99.90;;;;;;5056253;28;20195;-44
2022/01/29 03:52:54;;;;;;;39.43;24.17;;;5.90;99.90;;;;;;5044551;28;20210;-47
2022/01/29 03:55:22;;;;;;;37.50;22.50;;;5.90;99.90;;;;;;5063067;28;20219;-45
2022/01/29 03:57:48;;;;;;;37.83;21.73;;;5.90;99.90;;;;;;5060303;28;20202;-44
2022/01/29 04:00:15;;;;;;;36.90;21.27;;;5.90;99.90;;;;;;5062178;28;20666;-44
2022/01/29 04:02:44;;;;;;;41.30;22.20;;;6.00;99.90;;;;;;5049015;28;20206;-43
2022/01/29 04:05:11;;;;;;;42.67;23.33;;;6.00;99.90;;;;;;5061240;28;20927;-42
2022/01/29 04:07:40;;;;;;;38.37;22.33;;;6.00;99.90;;;;;;5049075;28;20205;-45
2022/01/29 04:10:07;;;;;;;39.80;21.00;;;6.00;99.90;;;;;;5063993;28;20182;-44
2022/01/29 04:12:40;;;;;;;35.07;20.93;;;6.00;99.90;;;;;;5067329;28;20667;-44
2022/01/29 04:15:08;;;;;;;37.57;21.70;;;6.00;99.90;;;;;;5064364;28;20904;-47
2022/01/29 04:17:36;;;;;;;35.07;17.63;;;6.10;99.90;;;;;;5057921;28;20206;-44
2022/01/29 04:20:04;;;;;;;38.90;21.10;;;6.10;99.90;;;;;;5062453;28;20199;-45
2022/01/29 04:22:31;;;;;;;37.43;20.87;;;6.10;99.90;;;;;;5052556;28;20206;-44
2022/01/29 04:24:58;;;;;;;35.93;21.57;;;6.10;99.90;;;;;;5062475;28;20182;-44
2022/01/29 04:27:34;;;;;;;33.83;20.53;;;6.10;99.90;;;;;;5066584;28;20214;-45
2022/01/29 04:30:07;;;;;;;38.23;21.80;;;6.20;99.90;;;;;;5062894;28;20316;-42
2022/01/29 04:32:56;;;;;;;36.53;20.97;;;6.20;99.90;;;;;;5066765;28;20206;-42
2022/01/29 04:35:22;;;;;;;38.23;21.47;;;6.20;99.90;;;;;;5061467;28;20567;-41
2022/01/29 04:37:50;;;;;;;35.30;21.37;;;6.20;99.90;;;;;;5052487;28;20215;-44
2022/01/29 04:40:17;;;;;;;32.23;17.87;;;6.20;99.90;;;;;;5063336;28;20210;-43
2022/01/29 04:42:44;;;;;;;37.40;21.07;;;6.20;99.90;;;;;;5064484;28;20198;-46
2022/01/29 04:45:11;;;;;;;36.90;20.93;;;6.20;99.90;;;;;;5064623;28;20202;-44
2022/01/29 04:47:38;;;;;;;34.03;20.00;;;6.30;99.90;;;;;;5061835;28;20207;-44
2022/01/29 04:50:06;;;;;;;34.57;19.27;;;6.20;99.90;;;;;;5054698;28;20206;-45
2022/01/29 04:52:35;;;;;;;31.03;19.37;;;6.30;99.90;;;;;;5066399;28;20343;-44
2022/01/29 04:55:01;;;;;;;34.90;20.73;;;6.30;99.90;;;;;;5049157;28;20213;-46
2022/01/29 04:57:28;;;;;;;34.47;18.87;;;6.30;99.90;;;;;;5065786;28;20717;-43
2022/01/29 04:59:55;;;;;;;35.77;20.07;;;6.30;99.90;;;;;;5062213;28;20259;-44
2022/01/29 05:02:22;;;;;;;35.63;20.20;;;6.30;99.90;;;;;;5053202;28;20206;-45
2022/01/29 05:04:49;;;;;;;39.00;21.07;;;6.30;99.90;;;;;;5058585;28;20211;-44
2022/01/29 05:07:16;;;;;;;39.73;20.90;;;6.30;99.90;;;;;;5059570;28;20713;-45
2022/01/29 05:09:44;;;;;;;30.70;19.00;;;6.30;99.90;;;;;;5049254;28;20205;-47
2022/01/29 05:12:18;;;;;;;32.33;19.67;;;6.40;99.90;;;;;;5052893;28;20558;-43
2022/01/29 05:15:01;;;;;;;28.77;17.13;;;6.40;99.90;;;;;;5066155;28;20233;-48
2022/01/29 05:28:25;;;;;;;30.23;18.07;;;6.60;99.90;;;;;;5049326;28;20203;-46
2022/01/29 05:30:52;;;;;;;27.33;15.03;;;6.60;99.90;;;;;;5065364;28;20811;-43
2022/01/29 05:33:19;;;;;;;28.60;18.03;;;6.60;99.90;;;;;;5055038;28;20195;-43
2022/01/29 05:35:46;;;;;;;28.37;17.80;;;6.60;99.90;;;;;;5047134;28;20210;-45
2022/01/29 05:38:12;;;;;;;26.77;16.07;;;6.60;99.90;;;;;;5053557;28;20244;-44
2022/01/29 05:40:41;;;;;;;29.43;18.90;;;6.70;99.90;;;;;;5050851;28;20214;-47
2022/01/29 05:43:07;;;;;;;32.73;18.43;;;6.70;99.90;;;;;;5054058;28;20206;-44
2022/01/29 05:45:34;;;;;;;27.23;17.70;;;6.70;99.90;;;;;;5064232;28;20222;-45
2022/01/29 05:48:02;;;;;;;31.53;18.43;;;6.70;99.90;;;;;;5060868;28;20191;-45
2022/01/29 05:50:29;;;;;;;30.17;18.10;;;6.60;99.90;;;;;;5057815;28;20210;-43
2022/01/29 05:52:55;;;;;;;26.73;16.43;;;6.70;99.90;;;;;;5057470;28;20199;-48
2022/01/29 05:55:23;;;;;;;31.53;18.97;;;6.90;99.90;;;;;;5056500;28;20217;-45
2022/01/29 05:57:51;;;;;;;32.90;19.37;;;6.90;99.90;;;;;;5047810;28;20286;-46
2022/01/29 06:00:17;;;;;;;27.80;18.57;;;7.10;99.90;;;;;;5060805;28;20976;-47
2022/01/29 06:02:44;;;;;;;29.47;18.07;;;6.90;99.90;;;;;;5065113;28;20213;-47
2022/01/29 06:05:12;;;;;;;37.03;19.37;;;6.70;99.90;;;;;;5060355;28;20563;-44
2022/01/29 06:07:39;;;;;;;28.37;18.07;;;7.00;99.90;;;;;;5056602;28;20195;-45
2022/01/29 06:10:07;;;;;;;30.50;17.57;;;7.00;99.90;;;;;;5060264;28;20199;-46
2022/01/29 06:12:33;;;;;;;25.13;16.10;;;7.00;99.90;;;;;;5046986;28;20962;-43
2022/01/29 06:15:02;;;;;;;29.70;17.73;;;7.00;99.90;;;;;;5063235;28;20226;-47
2022/01/29 06:17:28;;;;;;;31.53;17.77;;;7.00;99.90;;;;;;5056611;28;20224;-42
2022/01/29 06:19:55;;;;;;;27.77;16.80;;;7.00;99.90;;;;;;5063892;28;20202;-47
2022/01/29 06:22:23;;;;;;;29.70;16.33;;;7.10;99.90;;;;;;5061025;28;20191;-44
2022/01/29 06:24:50;;;;;;;24.37;14.73;;;7.10;99.90;;;;;;5051065;28;20200;-44
2022/01/29 06:27:16;;;;;;;26.10;15.93;;;7.10;99.90;;;;;;5043080;28;20214;-45
2022/01/29 06:29:43;;;;;;;26.67;15.30;;;7.20;99.90;;;;;;5045861;28;20231;-47
2022/01/29 06:32:12;;;;;;;24.60;15.50;;;7.20;99.90;;;;;;5060247;28;20206;-46
2022/01/29 06:34:39;;;;;;;18.00;12.93;;;7.20;99.90;;;;;;5059733;28;20710;-45
2022/01/29 06:37:05;;;;;;;24.37;15.00;;;7.30;99.90;;;;;;5053349;28;20222;-47
2022/01/29 06:39:32;;;;;;;25.90;15.33;;;7.30;99.90;;;;;;5053477;28;20977;-46
2022/01/29 06:41:58;;;;;;;28.67;16.23;;;7.30;99.90;;;;;;5047649;28;20207;-44
2022/01/29 06:44:25;;;;;;;28.47;15.83;;;7.30;99.90;;;;;;5053087;28;20203;-45
2022/01/29 06:46:52;;;;;;;27.33;17.43;;;7.30;99.90;;;;;;5059261;28;20272;-44
2022/01/29 06:49:20;;;;;;;30.30;17.67;;;7.40;99.90;;;;;;5058529;28;20194;-45
2022/01/29 06:51:47;;;;;;;26.83;16.33;;;7.40;99.90;;;;;;5060070;28;20264;-46
2022/01/29 06:54:13;;;;;;;33.70;18.80;;;7.40;99.90;;;;;;5048899;28;20525;-49
2022/01/29 06:56:40;;;;;;;30.33;18.13;;;7.50;99.90;;;;;;5048433;28;20218;-42
2022/01/29 06:59:07;;;;;;;31.60;18.17;;;7.50;99.90;;;;;;5043681;28;20516;-46
2022/01/29 07:01:34;;;;;;;26.80;16.27;;;7.50;99.90;;;;;;5055095;28;20206;-43
2022/01/29 07:04:00;;;;;;;31.97;17.63;;;7.50;99.90;;;;;;5040294;28;20213;-44
2022/01/29 07:06:28;;;;;;;31.53;18.10;;;7.50;99.90;;;;;;5055826;28;20714;-44
2022/01/29 07:08:55;;;;;;;26.53;16.57;;;7.60;99.90;;;;;;5056348;28;20281;-43
2022/01/29 07:11:23;;;;;;;33.20;17.87;;;7.60;99.90;;;;;;5044674;28;20246;-43
2022/01/29 07:13:55;;;;;;;32.23;17.93;;;7.60;99.90;;;;;;5041305;28;20195;-43
2022/01/29 07:16:22;;;;;;;30.03;17.63;;;7.70;99.90;;;;;;5042589;28;20258;-48
2022/01/29 07:18:49;;;;;;;30.40;16.67;;;7.70;99.90;;;;;;5054176;28;20195;-48
2022/01/29 07:21:15;;;;;;;23.77;16.73;;;7.70;99.90;;;;;;5052685;28;20229;-45
2022/01/29 07:23:43;;;;;;;26.20;16.53;;;7.70;99.90;;;;;;5057481;28;20194;-46
2022/01/29 07:26:10;;;;;;;23.73;16.33;;;7.60;99.90;;;;;;5044049;28;20231;-43
2022/01/29 07:28:39;;;;;;;30.20;16.00;;;7.80;99.90;;;;;;5042888;28;20281;-44
2022/01/29 07:31:06;;;;;;;24.40;15.47;;;7.80;99.90;;;;;;5050365;28;20201;-46
2022/01/29 07:33:33;;;;;;;30.47;16.13;;;7.80;99.90;;;;;;5047167;28;20224;-44
2022/01/29 07:36:01;;;;;;;21.67;14.67;;;7.80;99.90;;;;;;5059559;28;20267;-43
2022/01/29 07:38:28;;;;;;;27.37;16.00;;;7.80;99.90;;;;;;5055256;28;20206;-42
2022/01/29 07:40:56;;;;;;;20.00;14.50;;;7.80;99.90;;;;;;5054488;28;20202;-42
2022/01/29 07:43:23;;;;;;;21.30;14.63;;;7.90;99.90;;;;;;5038338;28;20233;-47
2022/01/29 07:45:50;;;;;;;18.67;12.57;;;7.90;99.90;;;;;;5051805;28;20215;-43
2022/01/29 07:48:17;;;;;;;15.50;12.30;;;7.90;99.90;;;;;;5049885;28;20207;-43
2022/01/29 07:50:45;;;;;;;17.87;12.47;;;7.90;99.90;;;;;;5050434;28;20199;-44
2022/01/29 07:53:12;;;;;;;16.27;12.47;;;7.90;99.90;;;;;;5054569;28;20205;-42
2022/01/29 07:55:39;;;;;;;17.17;11.40;;;7.90;99.90;;;;;;5040016;28;20792;-44
2022/01/29 07:58:07;;;;;;;18.60;11.77;;;7.90;99.90;;;;;;5054201;28;20710;-44
2022/01/29 08:00:34;;;;;;;17.17;10.97;;;7.90;99.90;;;;;;5043324;28;20826;-43
2022/01/29 08:03:01;;;;;;;16.43;11.97;;;7.90;99.90;;;;;;5054187;28;20209;-43
2022/01/29 08:05:29;;;;;;;13.03;10.30;;;7.90;99.90;;;;;;5049767;28;20542;-46
2022/01/29 08:07:55;;;;;;;15.17;10.43;;;7.90;99.90;;;;;;5059229;28;20217;-45
2022/01/29 08:10:22;;;;;;;14.37;10.53;;;7.90;99.90;;;;;;5044207;28;20213;-46
2022/01/29 08:12:49;;;;;;;12.47;9.80;;;7.90;99.90;;;;;;5055111;28;20199;-43
2022/01/29 08:15:18;;;;;;;13.70;9.73;;;7.90;99.90;;;;;;5047710;28;20210;-44
2022/01/29 08:17:44;;;;;;;12.47;8.73;;;8.00;99.90;;;;;;5049747;28;21104;-47
2022/01/29 08:20:12;;;;;;;12.03;9.80;;;8.00;99.90;;;;;;5054140;28;20213;-44
2022/01/29 08:22:39;;;;;;;12.80;9.63;;;7.90;99.90;;;;;;5059049;28;20197;-43
2022/01/29 08:25:06;;;;;;;10.47;8.47;;;8.00;99.90;;;;;;5048270;28;20309;-42
2022/01/29 08:27:33;;;;;;;9.70;8.30;;;8.00;99.90;;;;;;5050824;28;20233;-46
2022/01/29 08:30:01;;;;;;;10.63;8.90;;;8.00;99.90;;;;;;5047672;28;20206;-42
2022/01/29 08:32:29;;;;;;;11.23;8.80;;;8.00;99.90;;;;;;5056118;28;20212;-46
2022/01/29 08:34:56;;;;;;;11.57;7.47;;;8.00;99.90;;;;;;5051267;28;20234;-42
2022/01/29 08:37:22;;;;;;;10.30;7.67;;;8.00;99.90;;;;;;5053930;28;20223;-42
2022/01/29 08:39:49;;;;;;;11.57;8.03;;;8.00;99.90;;;;;;5050297;28;20947;-45
2022/01/29 08:42:16;;;;;;;10.40;8.10;;;8.00;99.90;;;;;;5051388;28;20219;-45
2022/01/29 08:44:43;;;;;;;10.77;8.17;;;8.00;99.90;;;;;;5037186;28;20215;-43
2022/01/29 08:47:10;;;;;;;9.43;8.10;;;8.00;99.90;;;;;;5054840;28;20214;-46
2022/01/29 08:49:40;;;;;;;10.70;7.93;;;8.10;99.90;;;;;;5056102;28;20205;-43
2022/01/29 08:52:07;;;;;;;9.70;8.00;;;8.10;99.90;;;;;;5045898;28;20285;-42
2022/01/29 08:54:34;;;;;;;7.70;6.60;;;8.10;99.90;;;;;;5054249;28;20260;-45
2022/01/29 08:57:01;;;;;;;13.03;8.37;;;8.10;99.90;;;;;;5055764;28;20218;-42
2022/01/29 08:59:28;;;;;;;9.70;7.70;;;8.10;99.90;;;;;;5050457;28;20212;-45
2022/01/29 09:01:55;;;;;;;9.73;7.90;;;8.10;99.90;;;;;;5048940;28;20285;-43
2022/01/29 09:04:21;;;;;;;8.97;7.30;;;8.10;99.90;;;;;;5064835;28;20206;-45
2022/01/29 09:06:50;;;;;;;8.73;7.67;;;8.10;99.90;;;;;;5051055;28;20218;-43
2022/01/29 09:09:20;;;;;;;10.83;7.57;;;8.20;99.90;;;;;;5065696;28;20209;-47
2022/01/29 09:11:47;;;;;;;8.23;6.80;;;8.10;99.90;;;;;;5051060;28;20195;-44
2022/01/29 09:14:14;;;;;;;11.20;7.20;;;8.20;99.90;;;;;;5055174;28;20213;-47
2022/01/29 09:16:41;;;;;;;11.00;7.27;;;8.20;99.90;;;;;;5041511;28;20222;-44
2022/01/29 09:19:07;;;;;;;12.23;7.37;;;8.20;99.90;;;;;;5059871;28;20202;-44
2022/01/29 09:21:34;;;;;;;9.90;7.60;;;8.20;99.90;;;;;;5043944;28;20228;-49
2022/01/29 09:24:02;;;;;;;13.30;8.00;;;8.10;99.90;;;;;;5060401;28;20233;-46
2022/01/29 09:26:29;;;;;;;13.00;8.03;;;8.30;99.90;;;;;;5061581;28;20219;-45
2022/01/29 09:28:56;;;;;;;10.83;7.47;;;8.30;99.90;;;;;;5062297;28;20225;-46
2022/01/29 09:31:23;;;;;;;9.80;7.13;;;8.30;99.90;;;;;;5042502;28;20210;-44
2022/01/29 09:33:50;;;;;;;9.20;6.90;;;8.20;99.90;;;;;;5065646;28;20564;-45
2022/01/29 09:36:17;;;;;;;10.03;7.30;;;8.70;99.90;;;;;;5061697;28;20822;-45
2022/01/29 09:38:44;;;;;;;9.10;6.73;;;8.30;99.90;;;;;;5065550;28;20202;-44
2022/01/29 09:41:12;;;;;;;7.77;6.97;;;8.30;99.90;;;;;;5061609;28;20205;-46
2022/01/29 09:43:42;;;;;;;8.43;5.97;;;8.30;99.90;;;;;;5065499;28;20195;-44
2022/01/29 09:46:09;;;;;;;11.57;7.30;;;8.30;99.90;;;;;;5037247;28;20296;-46
2022/01/29 09:48:37;;;;;;;11.90;6.47;;;8.40;99.90;;;;;;5062531;28;20202;-44
2022/01/29 09:51:05;;;;;;;9.93;6.80;;;8.40;99.90;;;;;;5062568;28;20199;-45
2022/01/29 09:53:32;;;;;;;9.10;7.27;;;8.40;99.90;;;;;;5064399;28;20195;-43
2022/01/29 09:55:59;;;;;;;10.20;6.60;;;8.40;99.90;;;;;;5063418;28;20222;-48
2022/01/29 09:58:27;;;;;;;9.27;7.30;;;8.40;99.90;;;;;;5063418;28;20430;-46
2022/01/29 10:00:53;;;;;;;10.77;7.47;;;8.40;99.90;;;;;;5055335;28;20255;-48
2022/01/29 10:03:21;;;;;;;8.50;7.03;;;8.40;99.90;;;;;;5047375;28;20206;-44
2022/01/29 10:05:49;;;;;;;9.73;6.00;;;8.40;99.90;;;;;;5063734;28;20223;-44
2022/01/29 10:08:17;;;;;;;8.87;7.33;;;8.40;99.90;;;;;;5061227;28;20793;-44
2022/01/29 10:10:45;;;;;;;8.50;7.03;;;8.40;99.90;;;;;;5065073;28;20194;-48
2022/01/29 10:13:23;;;;;;;9.37;6.50;;;8.50;99.90;;;;;;5060890;28;20199;-46
2022/01/29 10:15:53;;;;;;;9.63;7.20;;;8.50;99.90;;;;;;5058124;28;20563;-49
2022/01/29 10:18:24;;;;;;;7.87;6.97;;;8.50;99.90;;;;;;5035786;28;20214;-48
2022/01/29 10:20:51;;;;;;;7.07;5.73;;;8.50;99.90;;;;;;5064613;28;20198;-47
2022/01/29 10:23:18;;;;;;;8.90;6.63;;;8.50;99.90;;;;;;5061103;28;20198;-44
2022/01/29 10:25:51;;;;;;;8.60;6.43;;;8.50;99.90;;;;;;5064928;28;20691;-46
2022/01/29 10:28:20;;;;;;;9.20;6.93;;;8.50;99.90;;;;;;5061079;28;20928;-45
2022/01/29 10:31:03;;;;;;;8.33;6.53;;;8.50;99.90;;;;;;5053905;28;20207;-48
2022/01/29 10:33:32;;;;;;;8.83;5.67;;;8.50;99.90;;;;;;5048708;28;20203;-46
2022/01/29 10:36:00;;;;;;;7.63;5.77;;;8.50;99.90;;;;;;5062198;28;20222;-47
2022/01/29 10:38:29;;;;;;;4.93;4.43;;;8.50;99.90;;;;;;5062535;28;20920;-43
2022/01/29 10:41:17;;;;;;;7.83;4.90;;;8.60;99.90;;;;;;5063472;28;20210;-46
2022/01/29 10:44:09;;;;;;;6.87;5.50;;;8.60;99.90;;;;;;5058376;28;20202;-46
2022/01/29 10:46:40;;;;;;;4.63;4.17;;;8.60;99.90;;;;;;5034816;28;20264;-48
2022/01/29 10:49:08;;;;;;;6.57;4.93;;;8.50;99.90;;;;;;5040632;28;20222;-44
2022/01/29 10:51:36;;;;;;;5.00;4.60;;;8.50;99.90;;;;;;5046747;28;20199;-44
2022/01/29 10:54:19;;;;;;;8.27;5.90;;;8.70;99.90;;;;;;5056456;28;20202;-43
2022/01/29 10:57:08;;;;;;;6.03;4.67;;;8.70;99.90;;;;;;5059601;28;20323;-43
2022/01/29 10:59:38;;;;;;;6.23;4.40;;;8.70;99.90;;;;;;5049140;28;20203;-44
2022/01/29 11:02:09;;;;;;;6.43;5.20;;;8.70;99.90;;;;;;5053276;28;20465;-43
2022/01/29 11:04:38;;;;;;;5.57;4.90;;;8.90;99.90;;;;;;5045164;28;20206;-44
2022/01/29 11:07:09;;;;;;;6.13;4.47;;;8.70;99.90;;;;;;5055738;28;20575;-44
2022/01/29 11:09:39;;;;;;;6.43;4.70;;;8.70;99.90;;;;;;5043186;28;20324;-45
2022/01/29 11:12:06;;;;;;;7.17;5.37;;;8.70;99.90;;;;;;5060307;28;20667;-46
2022/01/29 11:14:35;;;;;;;6.67;5.30;;;8.70;99.90;;;;;;5053229;28;20195;-45
2022/01/29 11:17:04;;;;;;;6.13;4.87;;;8.70;99.90;;;;;;5038793;28;20222;-46
2022/01/29 11:19:33;;;;;;;7.63;5.63;;;8.80;99.90;;;;;;5039644;28;20461;-48
2022/01/29 11:22:05;;;;;;;8.20;5.90;;;8.80;99.90;;;;;;5063214;28;20210;-48
2022/01/29 11:24:33;;;;;;;7.73;6.57;;;8.80;99.90;;;;;;5040574;28;20300;-45
2022/01/29 11:27:00;;;;;;;7.83;6.00;;;8.80;99.90;;;;;;5053184;28;20222;-46
2022/01/29 11:29:32;;;;;;;10.10;7.00;;;8.80;99.90;;;;;;5054323;28;20586;-47
2022/01/29 11:32:25;;;;;;;12.83;9.20;;;8.80;99.90;;;;;;5059717;28;20309;-43
2022/01/29 11:35:22;;;;;;;9.83;6.97;;;8.80;99.90;;;;;;5045466;28;20302;-43
2022/01/29 11:38:10;;;;;;;11.13;7.40;;;8.80;99.90;;;;;;5037480;28;20710;-45
2022/01/29 11:40:39;;;;;;;11.13;7.37;;;8.80;99.90;;;;;;5052640;28;20278;-44
2022/01/29 11:43:09;;;;;;;7.97;6.20;;;8.90;99.90;;;;;;5056725;28;20190;-45
2022/01/29 11:45:49;;;;;;;7.33;6.17;;;8.90;99.90;;;;;;5057540;28;20217;-46
2022/01/29 11:48:52;;;;;;;10.23;6.33;;;8.90;99.90;;;;;;5049071;28;20214;-47
2022/01/29 11:51:53;;;;;;;11.93;4.47;;;9.00;99.90;;;;;;5043155;28;20289;-49
2022/01/29 11:54:26;;;;;;;7.80;6.00;;;9.00;99.90;;;;;;5054030;28;20221;-47
2022/01/29 11:57:11;;;;;;;9.03;5.83;;;9.00;99.90;;;;;;5054553;28;20233;-45
2022/01/29 11:59:38;;;;;;;9.47;5.63;;;9.20;99.90;;;;;;5060647;28;20198;-52
2022/01/29 12:02:36;;;;;;;10.70;5.80;;;9.10;99.90;;;;;;5056827;28;20311;-52
2022/01/29 12:05:07;;;;;;;5.80;4.20;;;9.10;99.90;;;;;;5051441;28;20198;-46
2022/01/29 12:07:55;;;;;;;5.90;4.77;;;9.20;99.90;;;;;;5045070;28;20207;-48
2022/01/29 12:10:35;;;;;;;7.13;4.77;;;9.20;99.90;;;;;;5050816;28;20214;-48
2022/01/29 12:13:11;;;;;;;8.40;5.27;;;9.40;99.90;;;;;;5061436;28;20248;-49
2022/01/29 12:15:39;;;;;;;5.73;4.80;;;9.20;99.90;;;;;;5053500;28;20275;-47
2022/01/29 12:18:25;;;;;;;8.00;5.70;;;9.20;99.90;;;;;;5056824;28;20191;-46
2022/01/29 12:20:52;;;;;;;8.70;5.27;;;9.30;99.90;;;;;;5059519;28;20207;-46
2022/01/29 12:23:20;;;;;;;7.57;5.10;;;9.10;99.90;;;;;;5044303;28;20210;-46
2022/01/29 12:25:56;;;;;;;6.93;4.60;;;9.30;99.90;;;;;;5062140;28;20227;-49
2022/01/29 12:28:23;;;;;;;7.73;4.20;;;9.30;99.90;;;;;;5050606;28;20206;-48
2022/01/29 12:30:50;;;;;;;7.13;4.30;;;9.30;99.90;;;;;;5067101;28;20194;-48
2022/01/29 12:33:19;;;;;;;5.47;4.93;;;9.30;99.90;;;;;;5061132;28;20199;-49
2022/01/29 12:35:50;;;;;;;8.27;5.33;;;9.30;99.90;;;;;;5056192;28;20309;-50
2022/01/29 12:38:18;;;;;;;9.17;5.27;;;9.30;99.90;;;;;;5045688;28;20206;-53
2022/01/29 12:40:55;;;;;;;7.43;4.80;;;9.30;99.90;;;;;;5051061;28;20199;-51
2022/01/29 12:43:26;;;;;;;5.73;5.07;;;9.30;99.90;;;;;;5048469;28;20206;-49
2022/01/29 12:45:54;;;;;;;4.50;4.07;;;9.30;99.90;;;;;;5061422;28;20218;-50
2022/01/29 12:48:22;;;;;;;9.53;4.57;;;9.30;99.90;;;;;;5057405;28;20195;-47
2022/01/29 12:50:49;;;;;;;8.80;4.53;;;9.40;99.90;;;;;;5055425;28;20202;-48
2022/01/29 12:53:19;;;;;;;5.10;4.60;;;10.00;99.90;;;;;;5050517;28;20289;-48
2022/01/29 12:56:01;;;;;;;6.70;4.70;;;9.40;99.90;;;;;;5062126;28;20321;-51
2022/01/29 12:58:30;;;;;;;7.70;3.27;;;9.50;99.90;;;;;;5056411;28;20685;-47
2022/01/29 13:01:06;;;;;;;5.60;4.07;;;9.50;99.90;;;;;;5058998;28;20292;-46
2022/01/29 13:03:33;;;;;;;11.10;3.53;;;9.50;99.90;;;;;;5058216;28;20202;-49